KCRP/CRP METAR and TAF weather

Enter ICAO airport designator
Station Type Date Time Source
KCRP METAR 2021/10/24 22:51 UTC NOAA

KCRP 242251Z 13012KT 10SM FEW036 FEW250 29/23 A2980 RMK AO2 SLP089 T02890233 $


Station Type Date Time Source
KCRP Decoded METAR 2021/10/24 22:51 UTC NOAA

CORPUS CHRISTI INTERNATIONAL , TX, United States (KCRP) 27-46N 97-31W 16M
Oct 24, 2021 - 06:51 PM EDT / 2021.10.24 2251 UTC
Wind: from the SE (130 degrees) at 14 MPH (12 KT):0
Visibility: 10 mile(s):0
Sky conditions: mostly clear
Temperature: 84.0 F (28.9 C)
Dew Point: 73.9 F (23.3 C)
Relative Humidity: 71%
Pressure (altimeter): 29.8 in. Hg (1009 hPa)
ob: KCRP 242251Z 13012KT 10SM FEW036 FEW250 29/23 A2980 RMK AO2 SLP089 T02890233
cycle: 23

Station Type Date Time Source
KCRP TAF 2021/10/24 18:42 UTC NOAA

TAF KCRP 241739Z 2418/2518 17010KT P6SM SCT030 BKN250
TEMPO 2418/2420 BKN030
FM242000 12012G16KT P6SM FEW035
FM250400 18007KT P6SM SCT012
FM250900 VRB04KT 5SM BR BKN012
TEMPO 2510/2513 2SM BR
FM251500 17007KT P6SM BKN020
FM251700 18010KT P6SM SCT030

Example: see airport list